sensor_id;sensor_type;location;lat;lon;timestamp;P1;durP1;ratioP1;P2;durP2;ratioP2
54259;SDS011;40172;53.022;7.012;2023-05-17T00:00:32;22.10;;;4.78;;
54259;SDS011;40172;53.022;7.012;2023-05-17T00:02:58;29.23;;;5.70;;
54259;SDS011;40172;53.022;7.012;2023-05-17T00:05:24;29.40;;;5.07;;
54259;SDS011;40172;53.022;7.012;2023-05-17T00:07:49;18.17;;;2.22;;
54259;SDS011;40172;53.022;7.012;2023-05-17T00:10:15;23.98;;;5.13;;
54259;SDS011;40172;53.022;7.012;2023-05-17T00:12:41;34.92;;;5.50;;
54259;SDS011;40172;53.022;7.012;2023-05-17T00:15:06;32.00;;;5.72;;
54259;SDS011;40172;53.022;7.012;2023-05-17T00:17:32;25.05;;;4.95;;
54259;SDS011;40172;53.022;7.012;2023-05-17T00:19:58;29.65;;;5.35;;
54259;SDS011;40172;53.022;7.012;2023-05-17T00:22:24;24.10;;;4.90;;
54259;SDS011;40172;53.022;7.012;2023-05-17T00:24:49;25.98;;;4.55;;
54259;SDS011;40172;53.022;7.012;2023-05-17T00:27:15;25.77;;;4.88;;
54259;SDS011;40172;53.022;7.012;2023-05-17T00:29:40;30.02;;;5.28;;
54259;SDS011;40172;53.022;7.012;2023-05-17T00:32:06;26.30;;;4.47;;
54259;SDS011;40172;53.022;7.012;2023-05-17T00:34:31;28.02;;;4.60;;
54259;SDS011;40172;53.022;7.012;2023-05-17T00:36:57;25.75;;;4.97;;
54259;SDS011;40172;53.022;7.012;2023-05-17T00:39:22;28.67;;;5.30;;
54259;SDS011;40172;53.022;7.012;2023-05-17T00:41:48;17.17;;;2.47;;
54259;SDS011;40172;53.022;7.012;2023-05-17T00:44:14;18.10;;;2.70;;
54259;SDS011;40172;53.022;7.012;2023-05-17T00:46:39;24.05;;;2.63;;
54259;SDS011;40172;53.022;7.012;2023-05-17T00:49:05;11.40;;;1.73;;
54259;SDS011;40172;53.022;7.012;2023-05-17T00:51:31;13.50;;;2.47;;
54259;SDS011;40172;53.022;7.012;2023-05-17T00:53:58;8.23;;;1.45;;
54259;SDS011;40172;53.022;7.012;2023-05-17T00:56:24;34.00;;;5.50;;
54259;SDS011;40172;53.022;7.012;2023-05-17T00:58:50;34.75;;;5.90;;
54259;SDS011;40172;53.022;7.012;2023-05-17T01:01:20;28.25;;;5.15;;
54259;SDS011;40172;53.022;7.012;2023-05-17T01:03:46;31.88;;;5.95;;
54259;SDS011;40172;53.022;7.012;2023-05-17T01:06:12;36.05;;;5.80;;
54259;SDS011;40172;53.022;7.012;2023-05-17T01:08:38;13.82;;;2.45;;
54259;SDS011;40172;53.022;7.012;2023-05-17T01:13:34;29.55;;;5.53;;
54259;SDS011;40172;53.022;7.012;2023-05-17T01:16:12;34.40;;;5.93;;
54259;SDS011;40172;53.022;7.012;2023-05-17T01:18:47;22.73;;;3.03;;
54259;SDS011;40172;53.022;7.012;2023-05-17T01:24:29;32.83;;;5.15;;
54259;SDS011;40172;53.022;7.012;2023-05-17T01:27:24;16.05;;;2.25;;
54259;SDS011;40172;53.022;7.012;2023-05-17T01:29:53;10.07;;;1.70;;
54259;SDS011;40172;53.022;7.012;2023-05-17T01:32:20;15.18;;;2.45;;
54259;SDS011;40172;53.022;7.012;2023-05-17T01:34:47;30.52;;;5.35;;
54259;SDS011;40172;53.022;7.012;2023-05-17T01:37:12;32.28;;;5.72;;
54259;SDS011;40172;53.022;7.012;2023-05-17T01:39:38;31.63;;;6.13;;
54259;SDS011;40172;53.022;7.012;2023-05-17T01:42:18;33.90;;;5.68;;
54259;SDS011;40172;53.022;7.012;2023-05-17T01:47:44;12.77;;;1.67;;
54259;SDS011;40172;53.022;7.012;2023-05-17T01:50:33;13.80;;;2.72;;
54259;SDS011;40172;53.022;7.012;2023-05-17T01:53:02;38.60;;;6.57;;
54259;SDS011;40172;53.022;7.012;2023-05-17T01:58:09;32.88;;;5.50;;
54259;SDS011;40172;53.022;7.012;2023-05-17T02:00:37;30.42;;;5.38;;
54259;SDS011;40172;53.022;7.012;2023-05-17T02:03:03;43.92;;;6.43;;
54259;SDS011;40172;53.022;7.012;2023-05-17T02:05:29;33.92;;;6.10;;
54259;SDS011;40172;53.022;7.012;2023-05-17T02:07:55;32.05;;;5.57;;
54259;SDS011;40172;53.022;7.012;2023-05-17T02:10:20;34.67;;;5.82;;
54259;SDS011;40172;53.022;7.012;2023-05-17T02:12:46;39.05;;;6.35;;
54259;SDS011;40172;53.022;7.012;2023-05-17T02:15:12;32.50;;;5.38;;
54259;SDS011;40172;53.022;7.012;2023-05-17T02:17:37;14.98;;;2.40;;
54259;SDS011;40172;53.022;7.012;2023-05-17T02:20:05;17.60;;;2.08;;
54259;SDS011;40172;53.022;7.012;2023-05-17T02:22:32;21.40;;;2.70;;
54259;SDS011;40172;53.022;7.012;2023-05-17T02:24:57;10.57;;;1.48;;
54259;SDS011;40172;53.022;7.012;2023-05-17T02:27:23;20.02;;;2.88;;
54259;SDS011;40172;53.022;7.012;2023-05-17T02:29:48;36.65;;;5.88;;
54259;SDS011;40172;53.022;7.012;2023-05-17T02:32:14;24.65;;;2.17;;
54259;SDS011;40172;53.022;7.012;2023-05-17T02:34:41;10.63;;;1.58;;
54259;SDS011;40172;53.022;7.012;2023-05-17T02:37:06;32.83;;;5.90;;
54259;SDS011;40172;53.022;7.012;2023-05-17T02:39:32;13.35;;;2.85;;
54259;SDS011;40172;53.022;7.012;2023-05-17T02:41:57;32.95;;;5.60;;
54259;SDS011;40172;53.022;7.012;2023-05-17T02:44:23;32.35;;;5.85;;
54259;SDS011;40172;53.022;7.012;2023-05-17T02:46:49;33.00;;;5.85;;
54259;SDS011;40172;53.022;7.012;2023-05-17T02:49:14;34.40;;;6.22;;
54259;SDS011;40172;53.022;7.012;2023-05-17T02:51:40;33.33;;;6.10;;
54259;SDS011;40172;53.022;7.012;2023-05-17T02:54:05;34.67;;;5.90;;
54259;SDS011;40172;53.022;7.012;2023-05-17T02:56:31;35.47;;;6.10;;
54259;SDS011;40172;53.022;7.012;2023-05-17T02:58:57;32.05;;;5.32;;
54259;SDS011;40172;53.022;7.012;2023-05-17T03:01:25;31.92;;;5.15;;
54259;SDS011;40172;53.022;7.012;2023-05-17T03:03:51;14.32;;;2.03;;
54259;SDS011;40172;53.022;7.012;2023-05-17T03:06:17;6.93;;;1.70;;
54259;SDS011;40172;53.022;7.012;2023-05-17T03:08:42;2.97;;;0.85;;
54259;SDS011;40172;53.022;7.012;2023-05-17T03:11:08;20.15;;;2.05;;
54259;SDS011;40172;53.022;7.012;2023-05-17T03:13:33;53.83;;;4.10;;
54259;SDS011;40172;53.022;7.012;2023-05-17T03:16:00;27.88;;;5.10;;
54259;SDS011;40172;53.022;7.012;2023-05-17T03:18:25;22.95;;;4.50;;
54259;SDS011;40172;53.022;7.012;2023-05-17T03:20:51;28.00;;;4.43;;
54259;SDS011;40172;53.022;7.012;2023-05-17T03:23:16;8.30;;;1.58;;
54259;SDS011;40172;53.022;7.012;2023-05-17T03:25:42;10.90;;;1.40;;
54259;SDS011;40172;53.022;7.012;2023-05-17T03:28:07;5.85;;;1.77;;
54259;SDS011;40172;53.022;7.012;2023-05-17T03:30:33;6.55;;;2.20;;
54259;SDS011;40172;53.022;7.012;2023-05-17T03:32:59;29.08;;;4.60;;
54259;SDS011;40172;53.022;7.012;2023-05-17T03:35:24;22.77;;;3.85;;
54259;SDS011;40172;53.022;7.012;2023-05-17T03:37:50;21.40;;;3.67;;
54259;SDS011;40172;53.022;7.012;2023-05-17T03:40:16;15.93;;;3.33;;
54259;SDS011;40172;53.022;7.012;2023-05-17T03:42:41;5.75;;;1.27;;
54259;SDS011;40172;53.022;7.012;2023-05-17T03:45:07;10.68;;;1.55;;
54259;SDS011;40172;53.022;7.012;2023-05-17T03:47:33;7.10;;;1.25;;
54259;SDS011;40172;53.022;7.012;2023-05-17T03:49:58;5.60;;;1.40;;
54259;SDS011;40172;53.022;7.012;2023-05-17T03:52:24;18.25;;;3.20;;
54259;SDS011;40172;53.022;7.012;2023-05-17T03:54:50;20.45;;;3.88;;
54259;SDS011;40172;53.022;7.012;2023-05-17T03:57:15;20.48;;;3.65;;
54259;SDS011;40172;53.022;7.012;2023-05-17T03:59:41;20.60;;;2.83;;
54259;SDS011;40172;53.022;7.012;2023-05-17T04:02:06;21.70;;;3.53;;
54259;SDS011;40172;53.022;7.012;2023-05-17T04:04:32;22.95;;;3.50;;
54259;SDS011;40172;53.022;7.012;2023-05-17T04:06:57;15.80;;;2.95;;
54259;SDS011;40172;53.022;7.012;2023-05-17T04:09:23;14.63;;;2.63;;
54259;SDS011;40172;53.022;7.012;2023-05-17T04:11:49;23.13;;;3.28;;
54259;SDS011;40172;53.022;7.012;2023-05-17T04:14:16;15.93;;;3.47;;
54259;SDS011;40172;53.022;7.012;2023-05-17T04:16:42;8.07;;;1.02;;
54259;SDS011;40172;53.022;7.012;2023-05-17T04:19:08;7.32;;;1.23;;
54259;SDS011;40172;53.022;7.012;2023-05-17T04:21:33;15.35;;;2.80;;
54259;SDS011;40172;53.022;7.012;2023-05-17T04:23:59;21.42;;;4.15;;
54259;SDS011;40172;53.022;7.012;2023-05-17T04:26:25;20.23;;;3.45;;
54259;SDS011;40172;53.022;7.012;2023-05-17T04:28:51;7.28;;;1.23;;
54259;SDS011;40172;53.022;7.012;2023-05-17T04:31:16;9.68;;;1.27;;
54259;SDS011;40172;53.022;7.012;2023-05-17T04:33:42;22.40;;;3.00;;
54259;SDS011;40172;53.022;7.012;2023-05-17T04:36:08;20.35;;;3.13;;
54259;SDS011;40172;53.022;7.012;2023-05-17T04:38:33;20.55;;;3.30;;
54259;SDS011;40172;53.022;7.012;2023-05-17T04:41:02;14.55;;;2.65;;
54259;SDS011;40172;53.022;7.012;2023-05-17T04:43:29;19.13;;;2.80;;
54259;SDS011;40172;53.022;7.012;2023-05-17T04:45:56;17.00;;;2.75;;
54259;SDS011;40172;53.022;7.012;2023-05-17T04:48:22;23.10;;;3.22;;
54259;SDS011;40172;53.022;7.012;2023-05-17T04:50:48;18.48;;;3.05;;
54259;SDS011;40172;53.022;7.012;2023-05-17T04:53:13;18.75;;;3.25;;
54259;SDS011;40172;53.022;7.012;2023-05-17T04:55:42;14.75;;;3.33;;
54259;SDS011;40172;53.022;7.012;2023-05-17T04:58:07;18.80;;;2.85;;
54259;SDS011;40172;53.022;7.012;2023-05-17T05:00:33;17.42;;;3.20;;
54259;SDS011;40172;53.022;7.012;2023-05-17T05:02:59;16.10;;;2.70;;
54259;SDS011;40172;53.022;7.012;2023-05-17T05:05:25;13.30;;;2.42;;
54259;SDS011;40172;53.022;7.012;2023-05-17T05:07:50;18.90;;;2.90;;
54259;SDS011;40172;53.022;7.012;2023-05-17T05:10:16;16.05;;;3.03;;
54259;SDS011;40172;53.022;7.012;2023-05-17T05:12:42;17.63;;;3.00;;
54259;SDS011;40172;53.022;7.012;2023-05-17T05:15:08;15.55;;;2.80;;
54259;SDS011;40172;53.022;7.012;2023-05-17T05:17:35;19.20;;;3.17;;
54259;SDS011;40172;53.022;7.012;2023-05-17T05:20:00;12.52;;;2.55;;
54259;SDS011;40172;53.022;7.012;2023-05-17T05:22:26;14.13;;;2.70;;
54259;SDS011;40172;53.022;7.012;2023-05-17T05:24:51;16.85;;;2.75;;
54259;SDS011;40172;53.022;7.012;2023-05-17T05:27:17;20.30;;;3.15;;
54259;SDS011;40172;53.022;7.012;2023-05-17T05:29:43;15.80;;;2.65;;
54259;SDS011;40172;53.022;7.012;2023-05-17T05:32:09;17.77;;;2.97;;
54259;SDS011;40172;53.022;7.012;2023-05-17T05:34:35;13.40;;;2.58;;
54259;SDS011;40172;53.022;7.012;2023-05-17T05:37:02;16.63;;;2.67;;
54259;SDS011;40172;53.022;7.012;2023-05-17T05:39:27;17.80;;;2.60;;
54259;SDS011;40172;53.022;7.012;2023-05-17T05:41:53;12.30;;;2.30;;
54259;SDS011;40172;53.022;7.012;2023-05-17T05:44:18;16.33;;;2.60;;
54259;SDS011;40172;53.022;7.012;2023-05-17T05:46:44;15.25;;;2.50;;
54259;SDS011;40172;53.022;7.012;2023-05-17T05:49:10;15.73;;;2.60;;
54259;SDS011;40172;53.022;7.012;2023-05-17T05:51:35;16.10;;;2.72;;
54259;SDS011;40172;53.022;7.012;2023-05-17T05:54:01;18.55;;;3.00;;
54259;SDS011;40172;53.022;7.012;2023-05-17T05:56:26;15.48;;;2.70;;
54259;SDS011;40172;53.022;7.012;2023-05-17T05:58:53;14.90;;;3.65;;
54259;SDS011;40172;53.022;7.012;2023-05-17T06:01:20;17.90;;;3.33;;
54259;SDS011;40172;53.022;7.012;2023-05-17T06:03:46;19.15;;;3.22;;
54259;SDS011;40172;53.022;7.012;2023-05-17T06:06:12;16.63;;;3.35;;
54259;SDS011;40172;53.022;7.012;2023-05-17T06:08:39;16.20;;;3.20;;
54259;SDS011;40172;53.022;7.012;2023-05-17T06:11:04;16.75;;;2.88;;
54259;SDS011;40172;53.022;7.012;2023-05-17T06:13:30;16.75;;;3.10;;
54259;SDS011;40172;53.022;7.012;2023-05-17T06:15:55;15.35;;;3.35;;
54259;SDS011;40172;53.022;7.012;2023-05-17T06:18:22;17.55;;;2.75;;
54259;SDS011;40172;53.022;7.012;2023-05-17T06:20:47;19.38;;;3.30;;
54259;SDS011;40172;53.022;7.012;2023-05-17T06:23:13;15.93;;;2.58;;
54259;SDS011;40172;53.022;7.012;2023-05-17T06:25:39;24.42;;;3.83;;
54259;SDS011;40172;53.022;7.012;2023-05-17T06:28:04;15.57;;;3.65;;
54259;SDS011;40172;53.022;7.012;2023-05-17T06:30:30;17.55;;;3.13;;
54259;SDS011;40172;53.022;7.012;2023-05-17T06:32:56;18.00;;;3.05;;
54259;SDS011;40172;53.022;7.012;2023-05-17T06:35:21;20.17;;;3.15;;
54259;SDS011;40172;53.022;7.012;2023-05-17T06:37:47;14.70;;;2.85;;
54259;SDS011;40172;53.022;7.012;2023-05-17T06:40:12;14.93;;;3.20;;
54259;SDS011;40172;53.022;7.012;2023-05-17T06:42:38;18.48;;;3.20;;
54259;SDS011;40172;53.022;7.012;2023-05-17T06:45:05;20.35;;;3.38;;
54259;SDS011;40172;53.022;7.012;2023-05-17T06:47:31;15.63;;;3.20;;
54259;SDS011;40172;53.022;7.012;2023-05-17T06:49:56;22.85;;;4.20;;
54259;SDS011;40172;53.022;7.012;2023-05-17T06:52:22;18.88;;;3.50;;
54259;SDS011;40172;53.022;7.012;2023-05-17T06:54:47;18.13;;;3.58;;
54259;SDS011;40172;53.022;7.012;2023-05-17T06:57:13;19.48;;;3.15;;
54259;SDS011;40172;53.022;7.012;2023-05-17T06:59:39;16.83;;;3.33;;
54259;SDS011;40172;53.022;7.012;2023-05-17T07:02:04;17.75;;;3.50;;
54259;SDS011;40172;53.022;7.012;2023-05-17T07:04:30;21.58;;;3.58;;
54259;SDS011;40172;53.022;7.012;2023-05-17T07:06:56;22.33;;;3.60;;
54259;SDS011;40172;53.022;7.012;2023-05-17T07:09:22;18.75;;;3.25;;
54259;SDS011;40172;53.022;7.012;2023-05-17T07:11:47;27.05;;;3.58;;
54259;SDS011;40172;53.022;7.012;2023-05-17T07:14:13;15.38;;;3.33;;
54259;SDS011;40172;53.022;7.012;2023-05-17T07:16:39;16.67;;;3.60;;
54259;SDS011;40172;53.022;7.012;2023-05-17T07:19:04;22.65;;;3.47;;
54259;SDS011;40172;53.022;7.012;2023-05-17T07:21:30;23.60;;;3.75;;
54259;SDS011;40172;53.022;7.012;2023-05-17T07:23:56;20.73;;;3.65;;
54259;SDS011;40172;53.022;7.012;2023-05-17T07:26:23;16.65;;;3.53;;
54259;SDS011;40172;53.022;7.012;2023-05-17T07:28:48;16.10;;;3.13;;
54259;SDS011;40172;53.022;7.012;2023-05-17T07:31:14;18.77;;;3.70;;
54259;SDS011;40172;53.022;7.012;2023-05-17T07:33:40;18.23;;;3.67;;
54259;SDS011;40172;53.022;7.012;2023-05-17T07:36:06;19.90;;;3.75;;
54259;SDS011;40172;53.022;7.012;2023-05-17T07:38:32;21.13;;;4.63;;
54259;SDS011;40172;53.022;7.012;2023-05-17T07:41:01;21.15;;;4.05;;
54259;SDS011;40172;53.022;7.012;2023-05-17T07:43:27;17.27;;;3.53;;
54259;SDS011;40172;53.022;7.012;2023-05-17T07:45:53;18.45;;;3.22;;
54259;SDS011;40172;53.022;7.012;2023-05-17T07:48:18;21.73;;;3.65;;
54259;SDS011;40172;53.022;7.012;2023-05-17T07:50:44;19.13;;;3.28;;
54259;SDS011;40172;53.022;7.012;2023-05-17T07:53:10;19.38;;;3.28;;
54259;SDS011;40172;53.022;7.012;2023-05-17T07:55:36;16.33;;;3.40;;
54259;SDS011;40172;53.022;7.012;2023-05-17T07:58:02;20.35;;;3.63;;
54259;SDS011;40172;53.022;7.012;2023-05-17T08:00:28;17.08;;;3.17;;
54259;SDS011;40172;53.022;7.012;2023-05-17T08:02:54;17.48;;;3.20;;
54259;SDS011;40172;53.022;7.012;2023-05-17T08:05:20;15.57;;;3.53;;
54259;SDS011;40172;53.022;7.012;2023-05-17T08:07:46;15.80;;;3.00;;
54259;SDS011;40172;53.022;7.012;2023-05-17T08:10:12;19.40;;;3.30;;
54259;SDS011;40172;53.022;7.012;2023-05-17T08:12:37;17.45;;;3.17;;
54259;SDS011;40172;53.022;7.012;2023-05-17T08:15:03;16.38;;;2.85;;
54259;SDS011;40172;53.022;7.012;2023-05-17T08:17:29;16.67;;;3.40;;
54259;SDS011;40172;53.022;7.012;2023-05-17T08:19:54;15.90;;;2.95;;
54259;SDS011;40172;53.022;7.012;2023-05-17T08:22:20;14.20;;;2.85;;
54259;SDS011;40172;53.022;7.012;2023-05-17T08:24:46;16.85;;;3.08;;
54259;SDS011;40172;53.022;7.012;2023-05-17T08:27:11;16.05;;;3.03;;
54259;SDS011;40172;53.022;7.012;2023-05-17T08:29:37;11.98;;;2.83;;
54259;SDS011;40172;53.022;7.012;2023-05-17T08:32:02;19.63;;;3.30;;
54259;SDS011;40172;53.022;7.012;2023-05-17T08:34:28;13.27;;;2.72;;
54259;SDS011;40172;53.022;7.012;2023-05-17T08:36:54;18.67;;;3.00;;
54259;SDS011;40172;53.022;7.012;2023-05-17T08:39:20;17.65;;;3.20;;
54259;SDS011;40172;53.022;7.012;2023-05-17T08:41:46;18.13;;;2.97;;
54259;SDS011;40172;53.022;7.012;2023-05-17T08:44:12;15.10;;;3.20;;
54259;SDS011;40172;53.022;7.012;2023-05-17T08:46:41;14.68;;;3.20;;
54259;SDS011;40172;53.022;7.012;2023-05-17T08:49:16;14.52;;;2.90;;
54259;SDS011;40172;53.022;7.012;2023-05-17T08:51:47;15.05;;;3.40;;
54259;SDS011;40172;53.022;7.012;2023-05-17T08:54:13;15.65;;;2.97;;
54259;SDS011;40172;53.022;7.012;2023-05-17T08:56:40;19.65;;;3.45;;
54259;SDS011;40172;53.022;7.012;2023-05-17T08:59:07;19.80;;;3.78;;
54259;SDS011;40172;53.022;7.012;2023-05-17T09:01:34;14.95;;;3.22;;
54259;SDS011;40172;53.022;7.012;2023-05-17T09:04:02;18.30;;;3.25;;
54259;SDS011;40172;53.022;7.012;2023-05-17T09:06:29;14.80;;;3.45;;
54259;SDS011;40172;53.022;7.012;2023-05-17T09:08:57;14.75;;;3.33;;
54259;SDS011;40172;53.022;7.012;2023-05-17T09:11:26;15.18;;;3.33;;
54259;SDS011;40172;53.022;7.012;2023-05-17T09:13:53;19.15;;;2.78;;
54259;SDS011;40172;53.022;7.012;2023-05-17T09:16:22;18.02;;;3.28;;
54259;SDS011;40172;53.022;7.012;2023-05-17T09:18:54;18.98;;;3.30;;
54259;SDS011;40172;53.022;7.012;2023-05-17T09:21:21;15.05;;;2.80;;
54259;SDS011;40172;53.022;7.012;2023-05-17T09:23:48;15.98;;;2.90;;
54259;SDS011;40172;53.022;7.012;2023-05-17T09:26:14;11.73;;;2.72;;
54259;SDS011;40172;53.022;7.012;2023-05-17T09:28:42;13.00;;;3.00;;
54259;SDS011;40172;53.022;7.012;2023-05-17T09:31:08;14.48;;;2.83;;
54259;SDS011;40172;53.022;7.012;2023-05-17T09:33:48;14.95;;;3.22;;
54259;SDS011;40172;53.022;7.012;2023-05-17T09:36:15;17.80;;;2.90;;
54259;SDS011;40172;53.022;7.012;2023-05-17T09:38:42;14.43;;;2.90;;
54259;SDS011;40172;53.022;7.012;2023-05-17T09:41:15;13.40;;;2.85;;
54259;SDS011;40172;53.022;7.012;2023-05-17T09:43:41;11.40;;;2.67;;
54259;SDS011;40172;53.022;7.012;2023-05-17T09:46:07;7.70;;;2.67;;
54259;SDS011;40172;53.022;7.012;2023-05-17T09:48:33;11.35;;;2.20;;
54259;SDS011;40172;53.022;7.012;2023-05-17T09:51:02;13.10;;;2.40;;
54259;SDS011;40172;53.022;7.012;2023-05-17T09:53:30;15.20;;;2.55;;
54259;SDS011;40172;53.022;7.012;2023-05-17T09:56:01;12.23;;;2.70;;
54259;SDS011;40172;53.022;7.012;2023-05-17T09:58:30;11.85;;;2.42;;
54259;SDS011;40172;53.022;7.012;2023-05-17T10:01:05;10.20;;;2.40;;
54259;SDS011;40172;53.022;7.012;2023-05-17T10:03:36;11.77;;;2.40;;
54259;SDS011;40172;53.022;7.012;2023-05-17T10:06:04;14.48;;;2.30;;
54259;SDS011;40172;53.022;7.012;2023-05-17T10:08:31;11.23;;;2.45;;
54259;SDS011;40172;53.022;7.012;2023-05-17T10:11:02;15.35;;;2.90;;
54259;SDS011;40172;53.022;7.012;2023-05-17T10:13:36;16.25;;;2.70;;
54259;SDS011;40172;53.022;7.012;2023-05-17T10:16:06;17.30;;;2.83;;
54259;SDS011;40172;53.022;7.012;2023-05-17T10:18:32;14.88;;;2.80;;
54259;SDS011;40172;53.022;7.012;2023-05-17T10:20:58;12.65;;;2.60;;
54259;SDS011;40172;53.022;7.012;2023-05-17T10:23:27;17.27;;;3.00;;
54259;SDS011;40172;53.022;7.012;2023-05-17T10:25:53;16.27;;;3.10;;
54259;SDS011;40172;53.022;7.012;2023-05-17T10:28:20;17.35;;;3.05;;
54259;SDS011;40172;53.022;7.012;2023-05-17T10:30:46;12.93;;;2.83;;
54259;SDS011;40172;53.022;7.012;2023-05-17T10:33:14;13.40;;;2.60;;
54259;SDS011;40172;53.022;7.012;2023-05-17T10:35:42;15.45;;;2.90;;
54259;SDS011;40172;53.022;7.012;2023-05-17T10:38:08;12.05;;;2.65;;
54259;SDS011;40172;53.022;7.012;2023-05-17T10:40:33;16.15;;;2.88;;
54259;SDS011;40172;53.022;7.012;2023-05-17T10:43:00;14.23;;;2.88;;
54259;SDS011;40172;53.022;7.012;2023-05-17T10:45:27;15.23;;;2.45;;
54259;SDS011;40172;53.022;7.012;2023-05-17T10:47:53;12.38;;;2.38;;
54259;SDS011;40172;53.022;7.012;2023-05-17T10:50:20;10.43;;;2.42;;
54259;SDS011;40172;53.022;7.012;2023-05-17T10:52:47;15.43;;;2.33;;
54259;SDS011;40172;53.022;7.012;2023-05-17T10:55:18;12.40;;;2.78;;
54259;SDS011;40172;53.022;7.012;2023-05-17T10:57:45;12.88;;;2.60;;
54259;SDS011;40172;53.022;7.012;2023-05-17T11:00:37;10.80;;;2.15;;
54259;SDS011;40172;53.022;7.012;2023-05-17T11:06:10;12.35;;;2.55;;
54259;SDS011;40172;53.022;7.012;2023-05-17T11:09:04;10.80;;;2.75;;
54259;SDS011;40172;53.022;7.012;2023-05-17T11:17:12;16.15;;;3.10;;
54259;SDS011;40172;53.022;7.012;2023-05-17T11:19:53;15.10;;;2.50;;
54259;SDS011;40172;53.022;7.012;2023-05-17T11:22:27;14.07;;;2.25;;
54259;SDS011;40172;53.022;7.012;2023-05-17T11:25:00;14.15;;;2.63;;
54259;SDS011;40172;53.022;7.012;2023-05-17T11:27:35;16.85;;;2.63;;
54259;SDS011;40172;53.022;7.012;2023-05-17T11:30:21;12.68;;;2.67;;
54259;SDS011;40172;53.022;7.012;2023-05-17T11:35:27;13.38;;;2.70;;
54259;SDS011;40172;53.022;7.012;2023-05-17T11:38:12;13.55;;;2.45;;
54259;SDS011;40172;53.022;7.012;2023-05-17T11:40:40;15.52;;;2.70;;
54259;SDS011;40172;53.022;7.012;2023-05-17T11:43:13;10.98;;;2.25;;
54259;SDS011;40172;53.022;7.012;2023-05-17T11:45:47;10.75;;;2.33;;
54259;SDS011;40172;53.022;7.012;2023-05-17T11:48:14;16.05;;;2.30;;
54259;SDS011;40172;53.022;7.012;2023-05-17T11:50:41;14.40;;;2.28;;
54259;SDS011;40172;53.022;7.012;2023-05-17T11:53:08;15.57;;;2.65;;
54259;SDS011;40172;53.022;7.012;2023-05-17T11:55:44;12.40;;;2.50;;
54259;SDS011;40172;53.022;7.012;2023-05-17T11:58:17;19.88;;;3.60;;
54259;SDS011;40172;53.022;7.012;2023-05-17T12:00:44;10.27;;;2.22;;
54259;SDS011;40172;53.022;7.012;2023-05-17T12:03:17;14.77;;;2.60;;
54259;SDS011;40172;53.022;7.012;2023-05-17T12:05:44;10.15;;;2.17;;
54259;SDS011;40172;53.022;7.012;2023-05-17T12:08:11;12.63;;;2.10;;
54259;SDS011;40172;53.022;7.012;2023-05-17T12:10:38;14.90;;;2.70;;
54259;SDS011;40172;53.022;7.012;2023-05-17T12:13:09;11.23;;;2.58;;
54259;SDS011;40172;53.022;7.012;2023-05-17T12:15:35;8.77;;;2.05;;
54259;SDS011;40172;53.022;7.012;2023-05-17T12:18:01;11.60;;;2.60;;
54259;SDS011;40172;53.022;7.012;2023-05-17T12:20:27;11.77;;;2.60;;
54259;SDS011;40172;53.022;7.012;2023-05-17T12:22:54;7.47;;;2.30;;
54259;SDS011;40172;53.022;7.012;2023-05-17T12:25:21;11.93;;;2.53;;
54259;SDS011;40172;53.022;7.012;2023-05-17T12:27:52;12.65;;;2.60;;
54259;SDS011;40172;53.022;7.012;2023-05-17T12:30:36;9.30;;;2.55;;
54259;SDS011;40172;53.022;7.012;2023-05-17T12:33:01;15.10;;;2.20;;
54259;SDS011;40172;53.022;7.012;2023-05-17T12:35:27;10.68;;;2.13;;
54259;SDS011;40172;53.022;7.012;2023-05-17T12:37:53;8.48;;;2.33;;
54259;SDS011;40172;53.022;7.012;2023-05-17T12:40:19;14.13;;;2.78;;
54259;SDS011;40172;53.022;7.012;2023-05-17T12:42:44;11.43;;;2.60;;
54259;SDS011;40172;53.022;7.012;2023-05-17T12:45:10;10.73;;;2.67;;
54259;SDS011;40172;53.022;7.012;2023-05-17T12:47:37;15.82;;;2.72;;
54259;SDS011;40172;53.022;7.012;2023-05-17T12:50:02;13.35;;;2.53;;
54259;SDS011;40172;53.022;7.012;2023-05-17T12:52:33;10.90;;;2.72;;
54259;SDS011;40172;53.022;7.012;2023-05-17T12:55:03;13.60;;;2.67;;
54259;SDS011;40172;53.022;7.012;2023-05-17T12:57:30;18.75;;;3.13;;
54259;SDS011;40172;53.022;7.012;2023-05-17T12:59:55;13.40;;;2.70;;
54259;SDS011;40172;53.022;7.012;2023-05-17T13:02:21;16.73;;;3.05;;
54259;SDS011;40172;53.022;7.012;2023-05-17T13:04:47;14.30;;;3.00;;
54259;SDS011;40172;53.022;7.012;2023-05-17T13:07:19;15.07;;;2.72;;
54259;SDS011;40172;53.022;7.012;2023-05-17T13:09:47;17.35;;;3.38;;
54259;SDS011;40172;53.022;7.012;2023-05-17T13:12:17;20.17;;;2.97;;
54259;SDS011;40172;53.022;7.012;2023-05-17T13:14:45;16.70;;;3.03;;
54259;SDS011;40172;53.022;7.012;2023-05-17T13:17:16;18.13;;;2.65;;
54259;SDS011;40172;53.022;7.012;2023-05-17T13:19:44;13.32;;;2.50;;
54259;SDS011;40172;53.022;7.012;2023-05-17T13:22:10;10.27;;;2.65;;
54259;SDS011;40172;53.022;7.012;2023-05-17T13:24:37;16.55;;;2.95;;
54259;SDS011;40172;53.022;7.012;2023-05-17T13:27:04;18.52;;;3.20;;
54259;SDS011;40172;53.022;7.012;2023-05-17T13:29:30;13.80;;;3.20;;
54259;SDS011;40172;53.022;7.012;2023-05-17T13:31:57;18.63;;;3.00;;
54259;SDS011;40172;53.022;7.012;2023-05-17T13:34:23;8.77;;;2.38;;
54259;SDS011;40172;53.022;7.012;2023-05-17T13:36:48;14.93;;;2.90;;
54259;SDS011;40172;53.022;7.012;2023-05-17T13:39:14;15.15;;;2.60;;
54259;SDS011;40172;53.022;7.012;2023-05-17T13:41:40;15.25;;;3.22;;
54259;SDS011;40172;53.022;7.012;2023-05-17T13:44:07;12.95;;;3.03;;
54259;SDS011;40172;53.022;7.012;2023-05-17T13:46:33;10.38;;;2.38;;
54259;SDS011;40172;53.022;7.012;2023-05-17T13:48:59;8.90;;;2.17;;
54259;SDS011;40172;53.022;7.012;2023-05-17T13:51:26;18.05;;;2.70;;
54259;SDS011;40172;53.022;7.012;2023-05-17T13:53:52;13.13;;;2.88;;
54259;SDS011;40172;53.022;7.012;2023-05-17T13:56:18;13.23;;;2.85;;
54259;SDS011;40172;53.022;7.012;2023-05-17T13:58:43;17.02;;;2.78;;
54259;SDS011;40172;53.022;7.012;2023-05-17T14:01:09;15.25;;;2.95;;
54259;SDS011;40172;53.022;7.012;2023-05-17T14:03:35;10.98;;;2.28;;
54259;SDS011;40172;53.022;7.012;2023-05-17T14:06:04;10.43;;;2.38;;
54259;SDS011;40172;53.022;7.012;2023-05-17T14:08:30;9.63;;;2.60;;
54259;SDS011;40172;53.022;7.012;2023-05-17T14:10:56;11.10;;;2.70;;
54259;SDS011;40172;53.022;7.012;2023-05-17T14:13:21;14.02;;;2.70;;
54259;SDS011;40172;53.022;7.012;2023-05-17T14:15:47;14.23;;;3.00;;
54259;SDS011;40172;53.022;7.012;2023-05-17T14:18:13;10.82;;;2.63;;
54259;SDS011;40172;53.022;7.012;2023-05-17T14:20:38;19.88;;;3.40;;
54259;SDS011;40172;53.022;7.012;2023-05-17T14:23:04;18.38;;;3.45;;
54259;SDS011;40172;53.022;7.012;2023-05-17T14:25:30;13.85;;;2.78;;
54259;SDS011;40172;53.022;7.012;2023-05-17T14:27:56;13.73;;;3.05;;
54259;SDS011;40172;53.022;7.012;2023-05-17T14:30:22;18.25;;;3.15;;
54259;SDS011;40172;53.022;7.012;2023-05-17T14:32:47;15.60;;;3.08;;
54259;SDS011;40172;53.022;7.012;2023-05-17T14:35:13;11.75;;;2.72;;
54259;SDS011;40172;53.022;7.012;2023-05-17T14:37:40;13.25;;;2.88;;
54259;SDS011;40172;53.022;7.012;2023-05-17T14:40:06;10.07;;;2.63;;
54259;SDS011;40172;53.022;7.012;2023-05-17T14:42:32;14.10;;;2.72;;
54259;SDS011;40172;53.022;7.012;2023-05-17T14:44:57;17.02;;;3.10;;
54259;SDS011;40172;53.022;7.012;2023-05-17T14:47:23;15.77;;;2.60;;
54259;SDS011;40172;53.022;7.012;2023-05-17T14:49:48;18.05;;;3.05;;
54259;SDS011;40172;53.022;7.012;2023-05-17T14:52:14;13.05;;;2.78;;
54259;SDS011;40172;53.022;7.012;2023-05-17T14:54:40;11.18;;;2.45;;
54259;SDS011;40172;53.022;7.012;2023-05-17T14:57:06;14.85;;;2.85;;